arxmliv
arxmliv build tool
 
KWARC group
LaTeXML
About
   
 

Detailed info

Back to Homepage

List of missing_macros

No. Date Filename num_warningnum_errornum_xmargok_xmargnum_xmathok_xmathMissing macros
2401 2013-04-15 17:39:28 /1205/1205.5550 1010000[\ovalbox].
2402 2013-04-15 17:39:28 /1205/1205.5545 520000[\tablecomments]; 1 missing file[deluxetable.sty].
2403 2013-04-15 17:39:28 /1205/1205.5505 8510000[\cortext].
2404 2013-04-15 17:39:16 /1205/1205.5466 39120000[Align, \xymatrix, \ar]; 9 missing files[xycurve.sty, xymatrix.sty, xyline.sty, xyarrow.sty, xycmtip.sty, xycolor.sty, xyrotate.sty, xyframe.sty, xygraph.sty].
2405 2013-04-15 17:38:46 /1205/1205.5511 380000[{comment}].
2406 2013-04-15 17:38:33 /1205/1205.5537 020000[\linenumbers, \modulolinenumbers].
2407 2013-04-15 17:38:12 /1205/1205.5489 23410000[\marginsize].
2408 2013-04-15 17:38:03 /1205/1205.5490 3640000[\PTPindex, \citen].
2409 2013-04-15 17:38:00 /1205/1205.5506 860000[\citep, \affiliation, \emailAdd, \note, \acknowledgments]; 1 missing file[jcappub.sty].
2410 2013-04-15 17:37:58 /1205/1205.5470 175150000[Align, \xymatrix, \ar].
2411 2013-04-15 17:37:51 /1205/1205.5516 4200000[{keywords}, \iffontfound, \ifCUPmtlplainloaded, \affiliation, \volume, \subfloat, \oiint, \pagerange, \checkfont, \pubyear]; 2 missing files[jfm.cls, srctex.sty].
2412 2013-04-15 17:37:40 /1205/1205.5494 4420000[{keywords}, \IEEEpeerreviewmaketitle]; 1 missing file[IEEEtran.cls].
2413 2013-04-15 17:37:07 /1205/1205.5504 210000[\geometry].
2414 2013-04-15 17:36:57 /1205/1205.5497 010000[\theappendix].
2415 2013-04-15 17:36:50 /1205/1205.5510 130000[{acknowledgments}, \bibpunct, \affiliation]; 1 missing file[revtex4fj.cls].
2416 2013-04-15 17:36:41 /1205/1205.5474 2720000[\geometry].
2417 2013-04-15 17:36:37 /1205/1205.5461 10810000[\mathds].
2418 2013-04-15 17:36:22 /1205/1205.5488 210000[\mathds].
2419 2013-04-15 17:36:16 /1205/1205.5484 430000[\caa].
2420 2013-04-15 17:36:03 /1205/1205.5471 030000[\fnref, \fntext, \biboptions].
2421 2013-04-15 17:36:01 /1205/1205.5486 130000[\figcapsoff]; 2 missing files[figcaps.sty, balance.sty].
2422 2013-04-15 17:35:54 /1205/1205.5480 2110000[{comment}].
2423 2013-04-15 17:35:07 /1205/1205.5467 370000[\affil, \cmidrule, \midrule, \toprule, \linenumbers, \bottomrule]; 1 missing file[authblk.sty].
2424 2013-04-15 17:35:02 /1205/1205.5431 24190000[\svhline, \I]; 1 missing file[type1cm.sty].
2425 2013-04-15 17:34:59 /1205/1205.5412 52130000[Align, \xymatrix, \ar, \CompileMatrices]; 9 missing files[xycurve.sty, xymatrix.sty, xyline.sty, xyarrow.sty, xycmtip.sty, xycolor.sty, xyrotate.sty, xyframe.sty, xygraph.sty].
2426 2013-04-15 17:34:57 /1205/1205.5443 36100000[{keywords}, \psfrag, {psfrags}]; 1 missing file[IEEEtran2.cls].
2427 2013-04-15 17:34:33 /1205/1205.5442 1380000[\smaller, \psfrag]; 1 missing file[afterpage.sty].
2428 2013-04-15 17:34:26 /1205/1205.5456 030000[\fnref, \cortext, \fntext].
2429 2013-04-15 17:34:05 /1205/1205.5446 16160000[\includegraphics, \preprint, \affiliation, \emailAdd]; 1 missing file[jheppub_r.sty].
2430 2013-04-15 17:34:01 /1205/1205.5425 4030000[{IEEEkeywords}, \IEEEPARstart, {IEEEbiography}]; 1 missing file[IEEEtran.cls].
2431 2013-04-15 17:33:56 /1205/1205.5408 7650000[{acknowledgments}, \affiliation, \emailAdd, \keywords]; 1 missing file[jcappub.sty].
2432 2013-04-15 17:33:39 /1205/1205.5434 030000[\theappendix]; 2 missing files[slantsc.sty, trackchanges.sty].
2433 2013-04-15 17:32:42 /1205/1205.5430 520000[{comment}]; 1 missing file[parskip.sty].
2434 2013-04-15 17:32:31 /1205/1205.5411 140000[\contribID, \desyproc, \confID, \acronym]; 1 missing file[desyproc.cls].
2435 2013-04-15 17:32:21 /1205/1205.5380 1750000[\cmidrule, \midrule, \addlinespace, \toprule, \bottomrule].
2436 2013-04-15 17:31:54 /1205/1205.5371 12550000[\PreprintJournalName, \PreprintCoverAbstract, \PreprintCoverPaperTitle, \PreprintIdNumber]; 1 missing file[preprintcover.sty].
2437 2013-04-15 17:31:29 /1205/1205.5391 110000[\varv].
2438 2013-04-15 17:31:03 /1205/1205.5400 720000[Align, \cortext].
2439 2013-04-15 17:30:39 /1205/1205.5376 4340000[Align, \xymatrix, \ar]; 1 missing file[xy.sty].
2440 2013-04-15 17:30:38 /1205/1205.5387 080000[\sodauthor, \rauthor, \address, \sodtitle, \dates, \lat, \PACS, \rtitle].
2441 2013-04-15 17:30:28 /1205/1205.5363 2610000[\uline].
2442 2013-04-15 17:30:25 /1205/1205.5389 9160000[\includegraphics, \href, \contribID, \doi]; 1 missing file[DISproc.cls].
2443 2013-04-15 17:30:11 /1205/1205.5362 9110000[\ccode, \catchline, \tbl, \keywords, \colrule, {history}, \botrule, \revised, \toprule, \received]; 1 missing file[ws.sty].
2444 2013-04-15 17:30:04 /1205/1205.5366 3430000[\apj, \pasj, \aaps, \slugcomment, \apjl, \aap, \acknowledgments, \shortauthors, \shorttitle, \email, \pasp, \araa, \aj, \altaffilmark, \keywords, \citealt, \includegraphics, Align, \apjs, \mnras, \citet, \altaffiltext]; 1 missing file[emulateapj-rtx4.cls
2445 2013-04-15 17:30:04 /1205/1205.5347 6410000[\citen].
2446 2013-04-15 17:30:03 /1205/1205.5343 1010000[\dint].
2447 2013-04-15 17:29:33 /1205/1205.5345 8480000[{definition}, {keywords}, {theorem}, {corollary}, {AMS}, \psfrag, {proof}, {proposition}]; 1 missing file[cmslatex.cls].
2448 2013-04-15 17:29:15 /1205/1205.5359 7110000[\Arc, \Text, \SetWidth, \arxivnumber, \LongArrow, \affiliation, \emailAdd, \SetColor, \keywords]; 2 missing files[axodraw4j.sty, jheppub.sty].
2449 2013-04-15 17:28:19 /1205/1205.5333 4820000[{CJK*}]; 1 missing file[CJK.sty].
2450 2013-04-15 17:28:05 /1205/1205.5348 410000[\FloatBarrier].
2451 2013-04-15 17:27:46 /1205/1205.5329 45200000[{lemma}, {theorem}, \pdfbookmark, \LastPageEnding, \Classification, \ArticleDates, {example}, {remark}, \AuthorNameForHeading, {proposition}, \Abstract, \ArticleName, \ShortArticleName, \FirstPageHeading, \Address, \Author, {definition}, {corollary}, \Em
2452 2013-04-15 17:27:43 /1205/1205.5331 13730000[\apj, \timeform, \citep, \lesssim, \pasj, \aap, \Accepted, \email, \pasp, \aj, \altaffilmark, \Received, \includegraphics, \mnras, \gtrsim, \FigureFile, \altaffiltext, \citet, \SetRunningHead]; 1 missing file[pasj00.cls].
2453 2013-04-15 17:27:31 /1205/1205.5319 650000[Align, \xyoption, \xymatrix, \ar]; 1 missing file[xy.sty].
2454 2013-04-15 17:27:24 /1205/1205.5288 66810000[\ssststile]; 1 missing file[turnstile.sty].
2455 2013-04-15 17:27:05 /1205/1205.5316 12640000[\theappendix]; 1 missing file[threeparttable.sty].
2456 2013-04-15 17:26:59 /1205/1205.5313 610000[\theappendix].
2457 2013-04-15 17:26:46 /1205/1205.5327 1130000[\citeauthoryear, \opencite, \surname, \institute, \runningtitle, {opening}, {article}, {acks}, \keywords, \sep, \runningauthor, \inlinecite]; 2 missing files[spr-sola-addons.sty, SolarPhysics.cls].
2458 2013-04-15 17:26:44 /1205/1205.5330 510000[\theappendix].
2459 2013-04-15 17:26:29 /1205/1205.5309 2150000[\aess, \bfC, \diaghead, \vr]; 1 missing file[makecell.sty].
2460 2013-04-15 17:26:05 /1205/1205.5310 3710000[\theappendix].
2461 2013-04-15 17:26:03 /1205/1205.5290 4340000[Align, \mathds, \xymatrix, \ar].
2462 2013-04-15 17:25:42 /1205/1205.5305 040000[\cortext, \subref].
2463 2013-04-15 17:25:16 /1205/1205.5268 1620000[\normalem]; 1 missing file[aas_macros.sty].
2464 2013-04-15 17:25:07 /1205/1205.5259 11120000[\bra, \ket].
2465 2013-04-15 17:24:34 /1205/1205.5271 1110000[\theappendix].
2466 2013-04-15 17:24:18 /1205/1205.5273 1360000[Align, \pluto, {subeqnarray}].
2467 2013-04-15 17:24:17 /1205/1205.5287 310000[\subfloat].
2468 2013-04-15 17:24:15 /1205/1205.5274 1310000[\theappendix].
2469 2013-04-15 17:23:47 /1205/1205.5241 4140000[\midrule, \toprule, \bottomrule]; 1 missing file[colordvi.sty].
2470 2013-04-15 17:23:25 /1205/1205.5249 3140000[Align, \xymatrix, \ar]; 1 missing file[xy.sty].
2471 2013-04-15 17:23:01 /1205/1205.5251 030000[\extrasenglish, \dateenglish, \captionsenglish].
2472 2013-04-15 17:22:52 /1205/1205.5257 210000[\theappendix].
2473 2013-04-15 17:22:28 /1205/1205.5236 1720000[\xygraph]; 1 missing file[xy.sty].
2474 2013-04-15 17:22:22 /1205/1205.5243 530000[\theappendix, \mathinner]; 1 missing file[bibtopic.sty].
2475 2013-04-15 17:22:16 /1205/1205.5260 020000[\degree]; 1 missing file[gensymb.sty].
2476 2013-04-15 17:22:16 /1205/1205.5231 17190000[{IEEEkeywords}, \IEEEPARstart, \IEEEpeerreviewmaketitle, \ifCLASSOPTIONcaptionsoff, \appendices, \ifCLASSINFOpdf]; 1 missing file[IEEEtran.cls].
2477 2013-04-15 17:21:55 /1205/1205.5248 310000[\subfloat].
2478 2013-04-15 17:21:20 /1205/1205.5234 14180000[\kwd, \snm, \affiliation, {keyword}, \fnms, \runtitle, {aug}, \address, \settocdepth, \setattribute, \runauthor, \printead, {frontmatter}, \ead]; 1 missing file[tocvsec2.sty].
2479 2013-04-15 17:21:18 /1205/1205.5250 030000[\extrasenglish, \dateenglish, \captionsenglish].
2480 2013-04-15 17:21:01 /1205/1205.5224 4130000[{IEEEkeywords}, \IEEEpeerreviewmaketitle, {proof}]; 1 missing file[IEEEtran.cls].
2481 2013-04-15 17:20:57 /1205/1205.5158 106620000[\doi, \syear, \affiliation, \printaddresses, {bmisc}, \thankstext, \volume, \bid, \address, \thanksref, \bfnm, \operatorname, \dvtx, \bhowpublished, \byear, \hyperref, \corref, \firstpage, \endbibitem, \received, \kwd, \mathbb, \bauthor, \snm, \beditor,
2482 2013-04-15 17:20:52 /1205/1205.5217 510000[\extrarowheight].
2483 2013-04-15 17:20:36 /1205/1205.5191 1910000[\braket].
2484 2013-04-15 17:20:08 /1205/1205.5212 030000[\extrasenglish, \dateenglish, \captionsenglish].
2485 2013-04-15 17:20:04 /1205/1205.5192 1490000[\cc, Align, \xymatrix, \ar]; 2 missing files[scrtime.sty, xy.sty].
2486 2013-04-15 17:20:02 /1205/1205.5202 910000[\mathds].
2487 2013-04-15 17:20:00 /1205/1205.5194 2340000[{sidewaystable}]; 2 missing files[colordvi.sty, grffile.sty].
2488 2013-04-15 17:19:37 /1205/1205.5195 570000[\cbcolor, \affiliation]; 1 missing file[xy.sty].
2489 2013-04-15 17:19:14 /1205/1205.5183 630000[\theappendix, \onlfig, Align].
2490 2013-04-15 17:19:04 /1205/1205.5208 540000[Align, \xymatrix, \ar]; 1 missing file[xy.sty].
2491 2013-04-15 17:18:37 /1205/1205.5185 040000[\extrasenglish, \ket, \dateenglish, \captionsenglish].
2492 2013-04-15 17:18:30 /1205/1205.5181 060000[\sectionfont, \subsectionfont]; 4 missing files[lastpage.sty, mhchem.sty, balance.sty, sectsty.sty].
2493 2013-04-15 17:18:23 /1205/1205.5182 060000[\cbcolor]; 5 missing files[program.sty, ucs.sty, pdfpages.sty, version.sty, framed.sty].
2494 2013-04-15 17:18:23 /1205/1205.5136 54480000[\mathds, {keywords}, {newproof}, {proof}, \IEEEQED, {framed}]; 2 missing files[IEEEtran.cls, framed.sty].
2495 2013-04-15 17:18:15 /1205/1205.5166 5330000[\mathds, \unichar]; 1 missing file[ucs.sty].
2496 2013-04-15 17:18:05 /1205/1205.5179 8900000[\ifzbstpl, \zeustitle, {alignat}, \ifzbstnp, \prepnum, \Gev, \ifzeusbst, \Zctdmvddesc, \Zcaldesc, \pbi, \notag, \zeusdate, \ifzeusunit, \unit, \Zlumidesc, \ifzbstepj, \ifzdrftbst, \Zdetdesc, \includegraphics, \Zacknowledge, Align, \Tev, \gev, \zeusauthor
2497 2013-04-15 17:18:00 /1205/1205.5160 1830000[Align, \xymatrix, \ar].
2498 2013-04-15 17:17:57 /1205/1205.5173 610000[\slashed].
2499 2013-04-15 17:17:57 /1205/1205.5162 010000[{comment}].
2500 2013-04-15 17:17:33 /1205/1205.5178 2080000[\includegraphics, \onelinecaptionsfalse, \mnras, \setcaptionmargin, \aj, \refitem, \captionstyle, \selectlanguage].
2501 2013-04-15 17:17:16 /1205/1205.5152 30120000[\affil, \eqref, \emails, \keywords, \ams, \address, \corrauth, \text, \comma, \affilnum]; 1 missing file[cicp.cls].
2502 2013-04-15 17:17:16 /1205/1205.5135 33150000[\mathds, {vchtable}, \inst, \Month, \Reviseddate, \Receiveddate, \DOIsuffix, \Volume, \keywords, \vchcaption, \pagespan, \Dateposted, \Year, \Accepteddate, {acknowledgement}].
2503 2013-04-15 17:17:13 /1205/1205.5083 85400000[{lemma}, \ShortAuthors, {theorem}, \ThirdAuthor, \MSCcodes, \startpagenumber, \ThirdAuthorURL, \volume, \ThirdAuthorAddress, \firstpage, \SecondAuthorEmail, \received, Align, \issue, \revised, \SecondAuthorURL, \FirstAuthorAddress, \ThirdAuthorEmail, \DO
2504 2013-04-15 17:17:12 /1205/1205.5138 7610000[\geometry].
2505 2013-04-15 17:17:04 /1205/1205.5134 6100000[{keywords}, \node, \arrow, {IEEEproof}, {diagram}]; 1 missing file[IEEEtran.cls].
2506 2013-04-15 17:16:54 /1205/1205.5133 6140000[{vchtable}, \inst, \Month, \Reviseddate, \Receiveddate, \DOIsuffix, \Volume, \keywords, \vchcaption, \pagespan, {vchfigure}, \Dateposted, \Year, \Accepteddate].
2507 2013-04-15 17:16:48 /1205/1205.5159 530000[\cortext]; 1 missing file[pgf.sty].
2508 2013-04-15 17:16:41 /1205/1205.5131 4720000[\geometry]; 1 missing file[xy.sty].
2509 2013-04-15 17:16:04 /1205/1205.5148 640000[{definition}, {theorem}, {AMS}, {proof}].
2510 2013-04-15 17:15:41 /1205/1205.5137 2070000[\inst, \titlerunning, \volnopage, \institute, \authorrunning, {acknowledgements}, \keywords]; 1 missing file[raa.cls].
2511 2013-04-15 17:15:34 /1205/1205.5122 18910000[{Authlist}, \Submitted, \Aref, \Irefn, \Irefnn, \AAref, \Adef, \Idef, \PHnumber, \Collaboration, \ShortAuthor, \Arefs, \Deceased, \PHdate]; 2 missing files[colordvi.sty, cernphprep.cls].
2512 2013-04-15 17:15:33 /1205/1205.5121 14910000[{Authlist}, \Submitted, \Aref, \Irefn, \Irefnn, \AAref, \Adef, \Idef, \PHnumber, \Collaboration, \ShortAuthor, \Arefs, \Deceased, \PHdate]; 2 missing files[colordvi.sty, cernphprep.cls].
2513 2013-04-15 17:15:30 /1205/1205.5139 020000[{turn}].
2514 2013-04-15 17:15:26 /1205/1205.5079 15760000[\Vertex, \Text, \Line, \Photon, \SetColor, \Gluon].
2515 2013-04-15 17:15:18 /1205/1205.5126 3070000[\noextrasbritish, \extrasenglish, \datebritish, \extrasbritish, \noextrasenglish, \geometry, \dateenglish].
2516 2013-04-15 17:15:17 /1205/1205.5118 720000[\vvvert, \mathds].
2517 2013-04-15 17:15:07 /1205/1205.5115 710000[\cortext].
2518 2013-04-15 17:15:06 /1205/1205.5113 110000[\mathds].
2519 2013-04-15 17:15:02 /1205/1205.5107 710000[\biboptions].
2520 2013-04-15 17:14:50 /1205/1205.5094 1030000[\theappendix].
2521 2013-04-15 17:14:49 /1205/1205.5114 0200000[\affil, \citeyear, \apj, \pasj, \apjl, \resetcounters, \aap, \arcsec, \citeauthor, \araa, \articlefigure, \citealp, \solphys, \altsubsubsection, Align, \bibpunct, \citet, \acknowledgements, \aspcs]; 1 missing file[rr-asp2010.sty].
2522 2013-04-15 17:14:44 /1205/1205.5109 730000[\@currentID, \@end@institute]; 1 missing file[type1cm.sty].
2523 2013-04-15 17:14:39 /1205/1205.5054 30450000[{prop}, {lemma}, {remark}, \newtheorem, {thm}].
2524 2013-04-15 17:14:38 /1205/1205.5108 3340000[\doi, \bolds, \runtitle, \volume, \href, \address, \pdfkeywords, \corref, \firstpage, \texorpdfstring, \url, \pubyear, \fnbelowfloat, \kwd, \lastpage, \snm, {hypothesis*}, {keyword}, \fnms, {aug}, \issue, \runauthor, \varnothing, \printead, {frontmatter}
2525 2013-04-15 17:14:31 /1205/1205.5095 430000[\tmspace, \delimiter, \mathaccentV].
2526 2013-04-15 17:14:08 /1205/1205.5091 1010000[\linenumbers].
2527 2013-04-15 17:14:03 /1205/1205.5073 1320000[\subfloat, \IEEEoverridecommandlockouts]; 1 missing file[IEEEtran.cls].
2528 2013-04-15 17:13:48 /1205/1205.5098 3100000[\IEEEauthorblockA, \IEEEauthorblockN, \IEEEdisplaynotcompsoctitleabstractindextext, \IEEEcompsoctitleabstractindextext, \midrule, \IEEEpeerreviewmaketitle, {IEEEkeywords}, \toprule, \bottomrule]; 1 missing file[IEEEtran.cls].
2529 2013-04-15 17:13:38 /1205/1205.5084 040000[\m]; 1 missing file[ps4pdf.sty].
2530 2013-04-15 17:13:15 /1205/1205.5052 8620000[\fint]; 1 missing file[esint.sty].
2531 2013-04-15 17:13:05 /1205/1205.5077 720000[\Fpbar, \C].
2532 2013-04-15 17:13:00 /1205/1205.5071 040000[\extrasenglish, \dateenglish, \captionsenglish]; 1 missing file[esint.sty].
2533 2013-04-15 17:12:48 /1205/1205.5062 4510000[{IEEEkeywords}]; 1 missing file[IEEEtran.cls].
2534 2013-04-15 17:12:28 /1205/1205.5040 44130000[\Line, \sectionfont, \GlueArc, \Photon, \subsectionfont, \Vertex, \DashCArc, \subsubsectionfont, \CArc, \PhotonArc, \DashLine, \Gluon]; 1 missing file[sectsty.sty].
2535 2013-04-15 17:12:18 /1205/1205.5065 1020000[\bra, \ket].
2536 2013-04-15 17:12:17 /1205/1205.5046 61160000[{acknowledgments}, \preprint, \href, \affiliation, \emailAdd, \keywords]; 2 missing files[esint.sty, jheppub.sty].
2537 2013-04-15 17:12:08 /1205/1205.5070 4110000[\theappendix].
2538 2013-04-15 17:12:01 /1205/1205.5069 120000[{CJK*}]; 1 missing file[CJK.sty].
2539 2013-04-15 17:11:32 /1205/1205.5058 2650000[\node, \arrow, \dgARROWLENGTH, \geometry, {diagram}].
2540 2013-04-15 17:11:19 /1205/1205.5055 150000[{IEEEkeywords}, \IEEEauthorblockA, \IEEEauthorblockN, \IEEEpeerreviewmaketitle, \IEEEauthorrefmark]; 1 missing file[IEEEtran.cls].
2541 2013-04-15 17:11:17 /1205/1205.5056 2160000[\includegraphics, \ShortTitle, \email, \FullConference, \speaker]; 1 missing file[PoS.cls].
2542 2013-04-15 17:11:15 /1205/1205.5042 210000[\FloatBarrier].
2543 2013-04-15 17:11:03 /1205/1205.5047 750000[{appendices}, \reserveinserts]; 3 missing files[apjfonts.sty, etex.sty, natbibspacing.sty].
2544 2013-04-15 17:10:38 /1205/1205.5017 2410000[\theappendix].
2545 2013-04-15 17:10:24 /1205/1205.5031 1070000[\href, \arxivnumber, \affiliation, \emailAdd, \acknowledgments, \keywords]; 1 missing file[jcappub.sty].
2546 2013-04-15 17:10:23 /1205/1205.5039 780000[\address, \sep, \cortext, \corref, {frontmatter}, {keyword}, \ead]; 2 missing files[pdflscape.sty, elsarticle2.cls].
2547 2013-04-15 17:09:54 /1205/1205.5007 24370000[\innerlogo, \trita, \copyrightline, {sidewaystable}, \thechapter, \address, \isrn, \department, \thechapter@ID, \division, \mainmatter, \city, \publisher, \cplogonblines, \shortdate, \type, \cplogo, \centercomment, \issn, \country, \foregincomment, \isbn
2548 2013-04-15 17:09:51 /1205/1205.5012 120260000[{keywords}, {algorithm}, \Until, \citep, \jmlrheading, {algorithmic}, \name, \Repeat, \thechapter, \subfloat, \email, \acks, \firstpageno, \editor, \ShortHeadings, \includegraphics, \State, \addr, \thicksim]; 1 missing file[jmlr2e.sty].
2549 2013-04-15 17:09:25 /1205/1205.5002 1130000[\pdfpageheight, \pdfpagewidth]; 1 missing file[xy.sty].
2550 2013-04-15 17:09:23 /1205/1205.5025 510000[\citenum].
2551 2013-04-15 17:09:08 /1205/1205.5003 1770000[{algorithm}].
2552 2013-04-15 17:08:56 /1205/1205.4898 250100000[\hair, Align, \pinlabel, \endlabellist, \SelectTips, \xymatrix, \labellist, \ar]; 2 missing files[pinlabel.sty, xy.sty].
2553 2013-04-15 17:08:36 /1205/1205.5015 020000[\@end@institute]; 1 missing file[fix-cm.sty].
2554 2013-04-15 17:08:26 /1205/1205.4992 2340000[\PTPindex, \citen].
2555 2013-04-15 17:08:12 /1205/1205.4987 19130000[\ArrowArc, \Line, \Photon, {centering}, \Text, \GCirc, \ArrowLine, \SetWidth, \COval, \SetScale, \LongArrow, \CArc, \PhotonArc].
2556 2013-04-15 17:08:09 /1205/1205.5009 1940000[\setmarginsrb].
2557 2013-04-15 17:08:02 /1205/1205.4991 1340000[\ShortTitle, \FullConference, \speaker]; 2 missing files[PoS-pdf.cls, colordvi.sty].
2558 2013-04-15 17:07:10 /1205/1205.4981 11390000[\includegraphics, \email, \affiliation, \acknowledgement, \ce]; 2 missing files[achemso.cls, mhchem.sty].
2559 2013-04-15 17:07:07 /1205/1205.4965 20160000[\shorttitle, \drm, \acknowledgments, \instlist].
2560 2013-04-15 17:06:36 /1205/1205.4960 1350000[Align, \xymatrix, \ar].
2561 2013-04-15 17:06:23 /1205/1205.4955 4130000[{algorithm}].
2562 2013-04-15 17:06:08 /1205/1205.4941 5220000[\bra, \ket].
2563 2013-04-15 17:05:43 /1205/1205.4946 3410000[\theappendix].
2564 2013-04-15 17:05:26 /1205/1205.4945 820000[Align, \biboptions].
2565 2013-04-15 17:05:17 /1205/1205.4918 1710000[\tmspace].
2566 2013-04-15 17:05:11 /1205/1205.4935 020000[\cortext]; 1 missing file[numcompress.sty].
2567 2013-04-15 17:04:55 /1205/1205.4940 1660000[\theappendix, \delimiter].
2568 2013-04-15 17:04:50 /1205/1205.4919 10430000[\dashline]; 2 missing files[pst-tree.sty, xy.sty].
2569 2013-04-15 17:04:48 /1205/1205.4939 520000[\mnras]; 1 missing file[aas_macros.sty].
2570 2013-04-15 17:04:41 /1205/1205.4892 77290000[{pspicture*}, \parametricplot, \psdots, \psset, \rput, \psline, \newrgbcolor, \pscircle]; 2 missing files[pstricks-add.sty, xy.sty].
2571 2013-04-15 17:04:32 /1205/1205.4879 010000[\theappendix].
2572 2013-04-15 17:04:25 /1205/1205.4924 2130000[\Book, \pacs, \inst, \shortauthor, \institute, \onefigure, \acknowledgments, \Publ, \shorttitle, \Name, \Year, \REVIEW, \etal]; 1 missing file[epl2.cls].
2573 2013-04-15 17:04:23 /1205/1205.4871 3260000[\theappendix, Align, \xymatrix, \chaptermark, \ar]; 1 missing file[xy.sty].
2574 2013-04-15 17:04:10 /1205/1205.4928 0410000[\SetKw, {algorithm}, \SetAlFnt, \drawedge, \alignauthor, \If, \LinesNumbered, \KwIn, \getFieldsRead, \DontPrintSemicolon, \pick, \KwOut, \numberofauthors, \keywords, \nodelabel, \drawrect, \Begin, \getFieldsWritten, \SetKwFunction, \conferenceinfo, \For,
2575 2013-04-15 17:03:25 /1205/1205.4912 130000[\email, \acknowledgments, \keywords]; 1 missing file[JINST.cls].
2576 2013-04-15 17:03:22 /1205/1205.4915 330000[\layoutstyle, \classification]; 1 missing file[{aipcheck}].
2577 2013-04-15 17:03:11 /1205/1205.4910 11130000[\centertexdraw, \setunitscale, \setgray, \avec, \fcir, \lvec, \htext, \linewd, \lpatt, \move, \arrowheadsize, \arrowheadtype, \textref].
2578 2013-04-15 17:03:10 /1205/1205.4891 12840000[\xygraph]; 3 missing files[slashbox.sty, xy.sty, framed.sty].
2579 2013-04-15 17:03:05 /1205/1205.4893 130000[\theappendix]; 2 missing files[slashbox.sty, framed.sty].
2580 2013-04-15 17:02:37 /1205/1205.4894 5210000[{comment}].
2581 2013-04-15 17:02:14 /1205/1205.4875 3070000[\binom, {keywords}, \specialpapernotice, \dsum, \Qcb, \FRAME, {proof}]; 1 missing file[IEEEtran.cls].
2582 2013-04-15 17:02:00 /1205/1205.4887 220000[\mathds, \unit].
2583 2013-04-15 17:01:45 /1205/1205.4885 640000[\webpage, \address, \email]; 1 missing file[cain_arxiv.sty].
2584 2013-04-15 17:01:39 /1205/1205.4866 3820000[\headwidth]; 1 missing file[lastpage.sty].
2585 2013-04-15 17:01:36 /1205/1205.4874 25160000[\at, {lemma}, \hdashline, {theorem}, {example}, \smartqed, \email, {remark}, \titlerunning, \authorrunning, \institute, \qed, \journalname, \keywords, {definition}, {proof}]; 1 missing file[mysvjour3.cls].
2586 2013-04-15 17:01:34 /1205/1205.4861 23280000[\epstopdfsetup, {SCfigure*}]; 1 missing file[sidecap.sty].
2587 2013-04-15 17:01:26 /1205/1205.4851 18100000[{cor}, {keyword}, \thanksref, \address, {pf}, {rem}, {ack}, {frontmatter}, {defn}, {thm}]; 1 missing file[ifacconf.cls].
2588 2013-04-15 17:01:16 /1205/1205.4872 1180000[\affil, \apj, \timeform, \pasj, \aap, \email, \Accepted, \pasp, \araa, \KeyWords, \aj, \iaucirc, \Received, \mnras, \apjs, \FigureFile, \citet, \SetRunningHead]; 1 missing file[pasj00.cls].
2589 2013-04-15 17:01:04 /1205/1205.4844 118220000[\citeyear, \belowbottomsep, \automark, \textphi, \theoremheaderfont, \pagemark, \shortciteN, \citeN, \chead, \clearscrheadfoot, \setkomafont, \theoremstyle, \cfoot, \theoremsymbol, \citeANP, \headmark, \theorembodyfont, \shortcite, \theoremseparator]; 4
2590 2013-04-15 17:01:01 /1205/1205.4862 220000[\bra, \ket].
2591 2013-04-15 17:01:00 /1205/1205.4853 8120000[{keyword}, \thanksref, \address, {pf}, \thethm, {frontmatter}, {ack}, {thm}]; 1 missing file[ifacconf.cls].
2592 2013-04-15 17:00:56 /1205/1205.4868 3130000[\theendnotes, \cortext, \biboptions].
2593 2013-04-15 17:00:41 /1205/1205.4867 030000[\extrasenglish, \dateenglish, \captionsenglish].
2594 2013-04-15 17:00:28 /1205/1205.4856 2130000[\authorblockN, \QED, \authorblockA]; 1 missing file[IEEEtran.cls].
2595 2013-04-15 17:00:26 /1205/1205.4842 1010000[\TCItag].
2596 2013-04-15 17:00:24 /1205/1205.4838 7150000[\mathds].
2597 2013-04-15 17:00:19 /1205/1205.4835 4080000[\bm, \doi, \jvol, \jnum, \issn, \jyear, \issnp, \received]; 1 missing file[gGAF2e.cls].
2598 2013-04-15 17:00:12 /1205/1205.4741 41070000[\yng, \href, \affiliation, \emailAdd, \acknowledgments]; 1 missing file[jheppub1.sty].
2599 2013-04-15 17:00:05 /1205/1205.4843 2060000[{prop}, \address, \thanksref, \thethm, {frontmatter}, {keyword}]; 1 missing file[ifacconf.cls].
2600 2013-04-15 16:59:44 /1205/1205.4795 9020000[\subfloat, \marginsize].
<<< >>>

[0] [200] [400] [600] [800] [1000] [1200] [1400] [1600] [1800] [2000] [2200] [2400] [2600] [2800] [3000] [3200] [3400] [3600] [3800] [4000] [4200] [4400] [4600] [4800] [5000] [5200] [5400] [5600] [5800] [6000] [6200] [6400] [6600] [6800] [7000] [7200] [7400] [7600] [7800] [8000] [8200] [8400] [8600] [8800] [9000] [9200] [9400] [9600] [9800] [10000] [10200] [10400] [10600] [10800] [11000] [11200] [11400] [11600] [11800] [12000] [12200] [12400] [12600] [12800] [13000] [13200] [13400] [13600] [13800] [14000] [14200] [14400] [14600] [14800] [15000] [15200] [15400] [15600] [15800] [16000] [16200] [16400] [16600] [16800] [17000] [17200] [17400] [17600] [17800] [18000] [18200] [18400] [18600] [18800] [19000] [19200] [19400] [19600] [19800] [20000] [20200] [20400] [20600] [20800] [21000] [21200] [21400] [21600] [21800] [22000] [22200] [22400] [22600] [22800] [23000] [23200] [23400] [23600] [23800] [24000] [24200] [24400] [24600] [24800] [25000] [25200] [25400] [25600] [25800] [26000] [26200] [26400] [26600] [26800] [27000] [27200] [27400] [27600] [27800] [28000] [28200] [28400] [28600] [28800] [29000] [29200] [29400] [29600] [29800] [30000] [30200] [30400] [30600] [30800] [31000] [31200] [31400] [31600] [31800] [32000] [32200] [32400] [32600] [32800] [33000] [33200] [33400] [33600] [33800] [34000] [34200] [34400] [34600] [34800] [35000] [35200] [35400] [35600] [35800] [36000] [36200] [36400] [36600] [36800] [37000] [37200] [37400] [37600] [37800] [38000] [38200] [38400] [38600] [38800] [39000] [39200] [39400] [39600] [39800] [40000] [40200] [40400] [40600] [40800] [41000] [41200] [41400] [41600] [41800] [42000] [42200] [42400] [42600] [42800] [43000] [43200] [43400] [43600] [43800] [44000] [44200] [44400] [44600] [44800] [45000] [45200] [45400] [45600] [45800] [46000] [46200] [46400] [46600] [46800] [47000] [47200] [47400] [47600] [47800] [48000] [48200] [48400] [48600] [48800] [49000] [49200] [49400] [49600] [49800] [50000] [50200] [50400] [50600] [50800] [51000] [51200] [51400] [51600] [51800] [52000] [52200] [52400] [52600] [52800] [53000] [53200] [53400] [53600] [53800] [54000] [54200] [54400] [54600] [54800] [55000] [55200] [55400] [55600] [55800] [56000] [56200] [56400] [56600] [56800] [57000] [57200] [57400] [57600] [57800] [58000] [58200] [58400] [58600] [58800] [59000] [59200] [59400] [59600] [59800] [60000] [60200] [60400] [60600] [60800] [61000] [61200] [61400] [61600] [61800] [62000] [62200] [62400] [62600] [62800] [63000] [63200] [63400] [63600] [63800] [64000] [64200] [64400] [64600] [64800] [65000] [65200] [65400] [65600] [65800] [66000] [66200] [66400] [66600] [66800] [67000] [67200] [67400] [67600] [67800] [68000] [68200] [68400] [68600] [68800] [69000] [69200] [69400] [69600] [69800] [70000] [70200] [70400] [70600] [70800] [71000] [71200] [71400] [71600] [71800] [72000] [72200] [72400] [72600] [72800] [73000] [73200] [73400] [73600] [73800] [74000] [74200] [74400] [74600] [74800] [75000] [75200] [75400] [75600] [75800] [76000] [76200] [76400] [76600] [76800] [77000] [77200] [77400] [77600] [77800] [78000] [78200] [78400] [78600] [78800] [79000] [79200] [79400] [79600] [79800] [80000] [80200] [80400] [80600] [80800] [81000] [81200] [81400] [81600] [81800] [82000] [82200] [82400] [82600] [82800] [83000] [83200] [83400] [83600] [83800] [84000] [84200] [84400] [84600] [84800] [85000] [85200] [85400] [85600] [85800] [86000] [86200] [86400] [86600] [86800] [87000] [87200] [87400] [87600] [87800] [88000] [88200] [88400] [88600] [88800] [89000] [89200] [89400] [89600] [89800] [90000] [90200] [90400] [90600] [90800] [91000] [91200] [91400] [91600] [91800] [92000] [92200] [92400] [92600] [92800] [93000] [93200] [93400] [93600] [93800] [94000] [94200] [94400] [94600] [94800] [95000] [95200] [95400] [95600] [95800] [96000] [96200] [96400] [96600] [96800] [97000] [97200] [97400] [97600] [97800] [98000] [98200] [98400] [98600] [98800] [99000] [99200] [99400] [99600] [99800] [100000] [100200] [100400] [100600] [100800] [101000] [101200] [101400] [101600] [101800] [102000] [102200] [102400] [102600] [102800] [103000] [103200] [103400] [103600] [103800] [104000] [104200] [104400] [104600] [104800] [105000] [105200] [105400] [105600] [105800] [106000] [106200] [106400] [106600] [106800] [107000] [107200] [107400] [107600] [107800] [108000] [108200] [108400] [108600] [108800] [109000] [109200] [109400] [109600] [109800] [110000] [110200] [110400] [110600] [110800] [111000] [111200] [111400] [111600] [111800] [112000] [112200] [112400] [112600] [112800] [113000] [113200] [113400] [113600] [113800] [114000] [114200] [114400] [114600] [114800] [115000] [115200] [115400] [115600] [115800] [116000] [116200] [116400] [116600] [116800] [117000] [117200] [117400] [117600] [117800] [118000] [118200] [118400] [118600] [118800] [119000] [119200] [119400] [119600] [119800] [120000] [120200] [120400] [120600] [120800] [121000] [121200] [121400] [121600] [121800] [122000] [122200] [122400] [122600] [122800] [123000] [123200] [123400] [123600] [123800] [124000] [124200] [124400] [124600] [124800] [125000] [125200] [125400] [125600] [125800] [126000] [126200] [126400] [126600] [126800] [127000] [127200] [127400] [127600] [127800] [128000] [128200] [128400] [128600] [128800] [129000] [129200] [129400] [129600] [129800] [130000] [130200] [130400] [130600] [130800] [131000] [131200] [131400] [131600] [131800] [132000] [132200] [132400] [132600] [132800] [133000] [133200] [133400] [133600] [133800] [134000] [134200] [134400] [134600] [134800] [135000] [135200] [135400] [135600] [135800] [136000] [136200] [136400] [136600] [136800] [137000] [137200] [137400] [137600] [137800] [138000] [138200] [138400] [138600] [138800] [139000] [139200] [139400] [139600] [139800] [140000] [140200] [140400] [140600] [140800] [141000] [141200] [141400] [141600] [141800] [142000] [142200] [142400] [142600] [142800] [143000] [143200] [143400] [143600] [143800] [144000] [144200] [144400] [144600] [144800] [145000] [145200] [145400] [145600] [145800] [146000] [146200] [146400] [146600] [146800] [147000] [147200] [147400] [147600] [147800] [148000] [148200] [148400] [148600] [148800] [149000] [149200] [149400] [149600] [149800] [150000] [150200] [150400] [150600] [150800] [151000] [151200] [151400] [151600] [151800] [152000] [152200] [152400] [152600] [152800] [153000] [153200] [153400] [153600] [153800] [154000] [154200] [154400] [154600] [154800] [155000] [155200] [155400] [155600] [155800] [156000] [156200] [156400] [156600] [156800] [157000] [157200] [157400] [157600] [157800] [158000] [158200] [158400] [158600] [158800] [159000] [159200] [159400] [159600] [159800] [160000] [160200] [160400] [160600] [160800] [161000] [161200] [161400] [161600] [161800] [162000] [162200] [162400] [162600] [162800] [163000] [163200] [163400] [163600] [163800] [164000] [164200] [164400] [164600]
 
  The service has been written by
Heinrich Stamerjohanns